Time;durP1;ratioP1;P1;durP2;ratioP2;P2;SDS_P1;SDS_P2;PMS_P1;PMS_P2;Temp;Humidity;BMP_temperature;BMP_pressure;BME280_temperature;BME280_humidity;BME280_pressure;Samples;Min_cycle;Max_cycle;Signal;HPM_P1;HPM_P2
2022/01/25 00:26:05;;;;;;;18.05;12.82;;;;;;;-1.08;82.65;101247.44;4990218;28;20430;-74
2022/01/25 00:31:13;;;;;;;16.25;11.70;;;;;;;-1.04;83.05;101256.13;4986896;28;20040;-73
2022/01/25 00:33:45;;;;;;;22.85;15.38;;;;;;;-1.05;82.29;101253.53;4990234;28;20064;-73
2022/01/25 00:36:14;;;;;;;20.42;14.75;;;;;;;-1.10;82.65;101258.59;4982250;28;20034;-72
2022/01/25 00:38:40;;;;;;;22.90;16.13;;;;;;;-1.10;82.49;101251.72;4999613;28;20046;-71
2022/01/25 00:41:06;;;;;;;20.95;14.45;;;;;;;-1.13;82.81;101250.78;4970557;28;20108;-72
2022/01/25 00:43:31;;;;;;;15.10;11.00;;;;;;;-1.10;82.50;101250.84;4987716;28;20031;-71
2022/01/25 00:46:01;;;;;;;19.92;14.02;;;;;;;-1.13;82.15;101254.25;4988762;28;20061;-73
2022/01/25 00:48:33;;;;;;;25.02;13.98;;;;;;;-1.14;82.47;101247.28;4972252;28;20034;-74
2022/01/25 00:51:36;;;;;;;19.90;14.02;;;;;;;-1.15;82.54;101244.69;4988727;28;20435;-73
2022/01/25 00:56:22;;;;;;;20.00;14.90;;;;;;;-1.25;82.71;101240.16;4988679;28;20042;-74
2022/01/25 00:58:48;;;;;;;20.90;14.13;;;;;;;-1.28;82.59;101248.69;4989265;28;20061;-74
2022/01/25 01:01:13;;;;;;;23.05;14.07;;;;;;;-1.27;82.34;101249.59;4988751;28;20037;-73
2022/01/25 01:03:39;;;;;;;26.80;16.48;;;;;;;-1.36;82.18;101248.53;4989763;28;20411;-73
2022/01/25 01:06:06;;;;;;;23.13;13.77;;;;;;;-1.39;82.25;101256.22;4989700;28;20061;-74
2022/01/25 01:08:32;;;;;;;23.20;11.70;;;;;;;-1.33;82.67;101258.06;4964304;28;20039;-73
2022/01/25 01:10:59;;;;;;;18.48;11.13;;;;;;;-1.25;82.56;101259.13;4989247;28;20030;-73
2022/01/25 01:16:40;;;;;;;16.30;11.10;;;;;;;-1.22;82.25;101261.78;4978443;28;20027;-72
2022/01/25 01:30:12;;;;;;;21.17;12.95;;;;;;;-1.22;82.14;101264.38;4993011;28;20045;-72
2022/01/25 01:35:38;;;;;;;19.27;11.68;;;;;;;-1.36;81.87;101263.19;4990345;28;20057;-72
2022/01/25 01:48:08;;;;;;;23.08;13.10;;;;;;;-1.43;81.83;101281.97;4989117;28;20129;-73
2022/01/25 01:50:36;;;;;;;18.10;12.13;;;;;;;-1.43;82.33;101288.03;4999302;28;20499;-73
2022/01/25 01:53:04;;;;;;;19.40;13.63;;;;;;;-1.50;81.40;101286.16;4975649;28;20104;-73
2022/01/25 01:55:31;;;;;;;22.90;13.50;;;;;;;-1.52;82.46;101283.53;4992102;28;20030;-73
2022/01/25 01:57:57;;;;;;;22.35;13.73;;;;;;;-1.51;82.54;101286.97;4993167;28;20042;-73
2022/01/25 02:00:45;;;;;;;22.05;12.15;;;;;;;-1.48;82.22;101281.00;4993495;28;20026;-72
2022/01/25 02:03:11;;;;;;;18.73;12.43;;;;;;;-1.46;82.26;101287.94;4962046;28;20108;-72
2022/01/25 02:05:40;;;;;;;20.73;11.40;;;;;;;-1.42;82.44;101274.28;4990773;28;20492;-72
2022/01/25 02:08:06;;;;;;;19.95;12.95;;;;;;;-1.37;82.09;101274.38;4974260;28;20164;-72
2022/01/25 02:10:32;;;;;;;22.83;14.30;;;;;;;-1.36;81.98;101276.13;4990188;28;20080;-71
2022/01/25 02:12:58;;;;;;;18.90;12.38;;;;;;;-1.33;82.31;101268.41;4991054;28;20380;-72
2022/01/25 02:15:27;;;;;;;15.27;11.25;;;;;;;-1.17;82.66;101261.91;4992094;28;20036;-72
2022/01/25 02:23:21;;;;;;;37.50;19.58;;;;;;;-0.90;84.22;101259.03;4991662;28;20509;-73
2022/01/25 02:25:48;;;;;;;53.75;23.42;;;;;;;-0.81;84.40;101266.09;4973553;28;20484;-72
2022/01/25 02:28:15;;;;;;;42.33;22.55;;;;;;;-0.77;84.65;101255.84;4991966;28;20117;-73
2022/01/25 02:30:41;;;;;;;56.60;21.50;;;;;;;-0.70;84.92;101265.50;4974531;28;20125;-73
2022/01/25 02:33:07;;;;;;;164.20;39.15;;;;;;;-0.66;85.02;101262.13;4990954;28;20046;-72
2022/01/25 02:35:32;;;;;;;103.05;28.25;;;;;;;-0.68;85.70;101266.41;4991188;28;20034;-72
2022/01/25 02:37:58;;;;;;;78.47;26.55;;;;;;;-0.68;85.64;101260.34;4974171;28;20065;-71
2022/01/25 02:40:23;;;;;;;101.35;34.47;;;;;;;-0.66;85.87;101264.72;4974581;28;20496;-72
2022/01/25 02:42:50;;;;;;;91.65;25.25;;;;;;;-0.62;85.43;101270.81;4991094;28;20392;-72
2022/01/25 02:45:17;;;;;;;63.58;26.25;;;;;;;-0.59;85.93;101270.00;4995858;28;20032;-72
2022/01/25 02:50:26;;;;;;;51.60;23.88;;;;;;;-0.63;85.83;101266.50;4991626;28;20092;-72
2022/01/25 02:52:52;;;;;;;44.05;17.90;;;;;;;-0.55;86.19;101259.75;4990641;28;20042;-72
2022/01/25 02:55:18;;;;;;;45.30;23.13;;;;;;;-0.48;85.75;101265.94;4973120;28;20044;-72
2022/01/25 02:57:46;;;;;;;70.13;28.42;;;;;;;-0.47;84.79;101259.88;4975094;28;20038;-72
2022/01/25 03:00:12;;;;;;;36.90;19.42;;;;;;;-0.46;85.70;101249.56;4983144;28;20514;-72
2022/01/25 03:02:37;;;;;;;39.15;20.40;;;;;;;-0.42;86.25;101253.09;4991977;28;20125;-71
2022/01/25 03:05:07;;;;;;;36.20;21.83;;;;;;;-0.43;85.53;101264.31;4991367;28;20090;-71
2022/01/25 03:07:34;;;;;;;44.17;21.85;;;;;;;-0.41;85.43;101266.94;4986257;28;20025;-71
2022/01/25 03:10:00;;;;;;;51.30;23.77;;;;;;;-0.37;85.20;101266.13;4989238;28;20037;-73
2022/01/25 03:12:43;;;;;;;65.68;26.20;;;;;;;-0.43;84.99;101265.16;4973660;28;20038;-72
2022/01/25 03:17:50;;;;;;;54.03;17.67;;;;;;;-0.44;85.21;101260.84;4990156;28;20108;-71
2022/01/25 03:20:22;;;;;;;49.90;24.10;;;;;;;-0.39;85.49;101270.41;4990213;28;20500;-70
2022/01/25 03:25:19;;;;;;;55.83;20.67;;;;;;;-0.32;84.76;101260.22;4993701;28;20046;-70
2022/01/25 03:27:45;;;;;;;80.72;21.73;;;;;;;-0.34;85.69;101256.72;4997696;28;20492;-71
2022/01/25 03:30:10;;;;;;;72.40;23.58;;;;;;;-0.34;85.05;101255.84;4989737;28;20030;-72
2022/01/25 03:32:37;;;;;;;69.63;21.65;;;;;;;-0.37;85.07;101256.66;4996937;28;20037;-71
2022/01/25 03:35:02;;;;;;;68.20;21.83;;;;;;;-0.40;85.12;101261.75;5006320;28;20111;-72
2022/01/25 03:37:28;;;;;;;127.28;28.77;;;;;;;-0.44;85.32;101259.97;4987863;28;20035;-72
2022/01/25 03:39:53;;;;;;;83.82;22.73;;;;;;;-0.43;85.25;101257.41;4982616;28;20033;-72
2022/01/25 03:42:19;;;;;;;155.75;40.95;;;;;;;-0.40;85.31;101247.94;4988480;28;20489;-72
2022/01/25 03:44:45;;;;;;;69.15;26.83;;;;;;;-0.41;85.55;101249.66;4988344;28;20117;-72
2022/01/25 03:47:15;;;;;;;78.55;25.13;;;;;;;-0.38;85.74;101243.66;4990261;28;20038;-72
2022/01/25 03:49:49;;;;;;;43.67;18.02;;;;;;;-0.38;85.56;101241.06;4989498;28;20041;-71
2022/01/25 03:52:19;;;;;;;45.45;22.60;;;;;;;-0.37;85.45;101241.13;4989356;28;20034;-71
2022/01/25 03:54:44;;;;;;;74.35;28.25;;;;;;;-0.35;86.42;101249.75;4989003;28;20080;-72
2022/01/25 03:57:10;;;;;;;50.10;22.75;;;;;;;-0.40;85.88;101247.94;4989348;28;20113;-71
2022/01/25 03:59:35;;;;;;;55.47;21.58;;;;;;;-0.41;85.81;101238.44;4989409;28;20414;-72
2022/01/25 04:02:01;;;;;;;70.63;23.88;;;;;;;-0.40;85.54;101238.44;4989779;28;20426;-72
2022/01/25 04:04:28;;;;;;;139.40;32.00;;;;;;;-0.39;85.23;101241.91;4989035;28;20030;-72
2022/01/25 04:06:54;;;;;;;150.60;34.70;;;;;;;-0.43;85.36;101239.25;4989639;28;20050;-73
2022/01/25 04:09:21;;;;;;;43.95;19.40;;;;;;;-0.44;86.28;101244.44;4956314;28;20108;-72
2022/01/25 04:11:46;;;;;;;55.63;25.25;;;;;;;-0.43;86.14;101238.41;4991622;28;20045;-73
2022/01/25 04:14:12;;;;;;;99.93;31.95;;;;;;;-0.40;85.68;101230.66;4990092;28;20034;-73
2022/01/25 04:16:48;;;;;;;79.30;23.08;;;;;;;-0.46;85.58;101230.56;4990545;28;20034;-72
2022/01/25 04:19:24;;;;;;;55.92;19.02;;;;;;;-0.46;85.56;101225.38;4989516;28;20467;-72
2022/01/25 04:27:06;;;;;;;111.72;20.48;;;;;;;-0.56;85.66;101231.25;4976080;28;20589;-73
2022/01/25 04:29:32;;;;;;;149.13;26.77;;;;;;;-0.54;85.76;101227.84;4992194;28;20495;-73
2022/01/25 04:31:57;;;;;;;355.25;59.00;;;;;;;-0.52;85.83;101220.94;4992524;28;20034;-73
2022/01/25 04:53:19;;;;;;;53.05;14.50;;;;;;;-0.71;85.56;101214.56;4992822;28;20026;-71
2022/01/25 04:56:02;;;;;;;70.85;20.25;;;;;;;-0.92;84.74;101219.28;4991933;28;20034;-72
2022/01/25 04:58:36;;;;;;;40.35;11.82;;;;;;;-0.90;85.27;101215.91;4975564;28;20046;-72
2022/01/25 05:01:02;;;;;;;44.33;12.63;;;;;;;-0.95;84.82;101209.75;4993455;28;20038;-73
2022/01/25 05:03:39;;;;;;;39.35;13.18;;;;;;;-0.95;84.46;101214.06;4995063;28;20034;-74
2022/01/25 05:06:13;;;;;;;20.25;9.95;;;;;;;-0.96;84.41;101202.84;4992211;28;20069;-72
2022/01/25 05:08:44;;;;;;;18.63;10.35;;;;;;;-1.00;83.61;101211.38;4992696;28;20447;-71
2022/01/25 05:11:16;;;;;;;21.02;11.98;;;;;;;-1.06;83.35;101207.78;4976323;28;20093;-72
2022/01/25 05:13:47;;;;;;;13.10;8.70;;;;;;;-1.13;83.84;101205.06;4993116;28;20038;-72
2022/01/25 05:16:32;;;;;;;14.80;10.07;;;;;;;-1.15;83.16;101201.56;4992284;28;20575;-71
2022/01/25 05:19:10;;;;;;;15.70;10.57;;;;;;;-1.13;82.42;101199.91;4992849;28;20507;-71
2022/01/25 05:24:20;;;;;;;17.55;10.73;;;;;;;-1.18;82.56;101191.16;4992056;28;20120;-72
2022/01/25 05:26:46;;;;;;;13.88;8.88;;;;;;;-1.15;82.59;101204.16;4992264;28;20081;-72
2022/01/25 05:29:11;;;;;;;11.75;7.82;;;;;;;-1.16;82.22;101202.41;4975135;28;20022;-71
2022/01/25 05:31:37;;;;;;;17.42;10.98;;;;;;;-1.15;82.90;101205.88;4992366;28;20425;-72
2022/01/25 05:34:03;;;;;;;12.45;8.50;;;;;;;-1.11;82.68;101211.16;4992110;28;20031;-71
2022/01/25 05:36:28;;;;;;;14.85;8.90;;;;;;;-1.02;82.65;101212.19;4992557;28;20039;-71
2022/01/25 05:38:58;;;;;;;16.17;10.02;;;;;;;-1.01;82.52;101208.75;4992305;28;20515;-71
2022/01/25 05:41:28;;;;;;;18.17;12.40;;;;;;;-1.00;82.18;101208.78;4992433;28;20030;-72
2022/01/25 05:46:21;;;;;;;12.55;8.48;;;;;;;-1.02;82.35;101212.19;4974229;28;20046;-72
2022/01/25 05:48:47;;;;;;;16.05;10.45;;;;;;;-0.99;81.92;101209.66;4991913;28;20410;-71
2022/01/25 05:51:13;;;;;;;15.88;10.18;;;;;;;-1.01;82.17;101207.06;4991633;28;20030;-71
2022/01/25 05:53:40;;;;;;;17.40;11.60;;;;;;;-0.99;82.69;101204.47;4991141;28;20491;-72
2022/01/25 05:56:06;;;;;;;19.85;12.40;;;;;;;-1.01;82.52;101207.06;4990958;28;20092;-71
2022/01/25 05:58:31;;;;;;;16.05;9.65;;;;;;;-0.98;82.80;101208.84;4991140;28;20046;-71
2022/01/25 06:00:56;;;;;;;18.20;10.80;;;;;;;-0.92;82.60;101211.53;4992139;28;20487;-71
2022/01/25 06:03:22;;;;;;;24.02;11.98;;;;;;;-0.88;83.08;101215.94;5005964;28;20030;-70
2022/01/25 06:05:47;;;;;;;18.05;10.50;;;;;;;-0.90;83.23;101218.47;4991084;28;20061;-71
2022/01/25 06:08:13;;;;;;;19.92;9.48;;;;;;;-0.93;83.29;101218.44;4974068;28;20457;-71
2022/01/25 06:10:39;;;;;;;21.02;13.52;;;;;;;-0.94;83.25;101227.00;4991643;28;20069;-70
2022/01/25 06:13:05;;;;;;;44.40;16.67;;;;;;;-0.96;83.89;101220.06;4992012;28;20464;-70
2022/01/25 06:15:31;;;;;;;58.50;16.88;;;;;;;-0.91;84.16;101221.03;4990842;28;20154;-70
2022/01/25 06:17:56;;;;;;;70.68;16.27;;;;;;;-0.92;84.44;101229.66;4991876;28;20046;-71
2022/01/25 06:20:22;;;;;;;52.47;17.40;;;;;;;-0.92;84.86;101217.56;4991529;28;20026;-71
2022/01/25 06:22:47;;;;;;;98.93;21.27;;;;;;;-0.89;84.98;101227.13;4974295;28;20038;-71
2022/01/25 06:25:14;;;;;;;51.72;15.43;;;;;;;-0.89;85.51;101227.13;4991849;28;20050;-71
2022/01/25 06:27:42;;;;;;;157.45;33.45;;;;;;;-0.92;84.79;101224.47;4991727;28;20117;-71
2022/01/25 06:30:13;;;;;;;62.50;18.65;;;;;;;-0.94;85.96;101224.44;4991070;28;20038;-72
2022/01/25 06:32:38;;;;;;;59.45;16.80;;;;;;;-0.91;85.90;101221.94;4991274;28;20030;-71
2022/01/25 06:35:06;;;;;;;111.85;27.23;;;;;;;-0.85;85.64;101216.00;4992252;28;20042;-71
2022/01/25 06:37:31;;;;;;;49.25;15.20;;;;;;;-0.80;86.19;101219.53;4991171;28;20038;-72
2022/01/25 06:39:58;;;;;;;64.38;18.27;;;;;;;-0.83;85.15;101209.13;4990619;28;20026;-72
2022/01/25 06:42:24;;;;;;;67.45;19.65;;;;;;;-0.88;85.42;101215.94;4990946;28;20423;-72
2022/01/25 06:44:54;;;;;;;82.75;20.00;;;;;;;-0.94;85.09;101208.91;4989537;28;20048;-71
2022/01/25 06:47:19;;;;;;;63.55;21.58;;;;;;;-0.88;85.66;101219.41;4973540;28;20125;-72
2022/01/25 06:49:45;;;;;;;68.35;19.70;;;;;;;-0.90;85.60;101218.47;4991134;28;20133;-71
2022/01/25 06:52:11;;;;;;;34.85;13.82;;;;;;;-0.89;85.52;101220.25;4990394;28;20373;-72
2022/01/25 06:54:37;;;;;;;34.10;13.68;;;;;;;-0.85;85.16;101221.16;4990029;28;20030;-73
2022/01/25 06:57:02;;;;;;;35.80;14.95;;;;;;;-0.82;85.15;101218.63;4991072;28;20500;-72
2022/01/25 06:59:28;;;;;;;33.45;15.60;;;;;;;-0.85;85.12;101216.00;4990357;28;20474;-72
2022/01/25 07:01:53;;;;;;;45.90;16.20;;;;;;;-0.84;85.48;101220.31;4990621;28;20121;-71
2022/01/25 07:04:18;;;;;;;63.65;21.05;;;;;;;-0.74;85.41;101222.28;4989858;28;20031;-71
2022/01/25 07:06:44;;;;;;;116.03;28.52;;;;;;;-0.72;84.67;101227.47;4990626;28;20036;-73
2022/01/25 07:09:09;;;;;;;161.90;35.50;;;;;;;-0.83;85.07;101229.84;4990037;28;20050;-73
2022/01/25 07:11:35;;;;;;;111.80;27.20;;;;;;;-0.81;85.52;101228.16;4990231;28;20491;-70
2022/01/25 07:14:00;;;;;;;59.92;17.55;;;;;;;-0.75;85.67;101233.44;4989661;28;20046;-72
2022/01/25 07:16:26;;;;;;;147.20;29.88;;;;;;;-0.68;85.54;101227.56;4989498;28;20096;-71
2022/01/25 07:18:51;;;;;;;163.88;27.30;;;;;;;-0.75;85.27;101227.41;4989673;28;20454;-71
2022/01/25 07:21:17;;;;;;;40.15;14.52;;;;;;;-0.73;86.17;101230.91;4990755;28;20487;-72
2022/01/25 07:23:42;;;;;;;90.25;26.70;;;;;;;-0.71;85.35;101229.22;4990111;28;20036;-72
2022/01/25 07:26:07;;;;;;;53.65;16.48;;;;;;;-0.70;85.48;101236.13;4989280;28;20089;-70
2022/01/25 07:28:33;;;;;;;132.20;29.02;;;;;;;-0.79;85.01;101236.81;4990052;28;20117;-71
2022/01/25 07:30:59;;;;;;;80.95;23.80;;;;;;;-0.76;85.95;101228.25;4990199;28;20030;-70
2022/01/25 07:33:24;;;;;;;40.90;16.20;;;;;;;-0.70;85.66;101239.59;4990676;28;20546;-71
2022/01/25 07:35:49;;;;;;;52.33;17.75;;;;;;;-0.62;85.74;101231.09;5005077;28;20153;-71
2022/01/25 07:38:15;;;;;;;61.05;19.67;;;;;;;-0.62;85.77;101242.34;4999732;28;20038;-71
2022/01/25 07:40:41;;;;;;;85.78;22.83;;;;;;;-0.63;84.97;101237.16;4989726;28;20046;-71
2022/01/25 07:43:07;;;;;;;90.03;22.42;;;;;;;-0.69;85.12;101233.59;4989847;28;20057;-72
2022/01/25 07:45:35;;;;;;;83.57;20.15;;;;;;;-0.65;86.09;101232.78;4972019;28;20420;-70
2022/01/25 07:48:09;;;;;;;201.02;36.50;;;;;;;-0.72;85.77;101233.50;4990495;28;20050;-72
2022/01/25 07:50:35;;;;;;;138.88;32.65;;;;;;;-0.70;86.00;101229.25;4986822;28;20470;-73
2022/01/25 07:53:00;;;;;;;52.53;18.58;;;;;;;-0.60;86.58;101229.44;4993838;28;20035;-73
2022/01/25 07:55:26;;;;;;;143.70;28.90;;;;;;;-0.54;87.06;101227.84;4984247;28;20104;-73
2022/01/25 07:57:52;;;;;;;39.15;16.00;;;;;;;-0.50;86.92;101229.63;5000015;28;20129;-71
2022/01/25 08:00:18;;;;;;;33.58;17.75;;;;;;;-0.42;86.51;101229.75;4998038;28;20034;-73
2022/01/25 08:02:44;;;;;;;48.00;17.83;;;;;;;-0.33;87.08;101229.94;5000548;28;20796;-71
2022/01/25 08:05:13;;;;;;;93.18;26.67;;;;;;;-0.26;86.47;101229.22;5001752;28;20046;-71
2022/01/25 08:07:38;;;;;;;87.13;31.90;;;;;;;-0.23;87.01;101231.00;4952998;28;20027;-72
2022/01/25 08:10:04;;;;;;;58.92;23.48;;;;;;;-0.14;86.81;101227.69;4975541;28;20049;-76
2022/01/25 08:12:31;;;;;;;92.95;28.58;;;;;;;-0.02;86.54;101222.72;4998702;28;20457;-69
2022/01/25 08:14:58;;;;;;;160.32;39.70;;;;;;;-0.02;85.86;101226.19;4999189;28;20166;-69
2022/01/25 08:17:24;;;;;;;83.07;28.73;;;;;;;0.04;86.54;101221.94;4993694;28;20039;-69
2022/01/25 08:19:49;;;;;;;39.35;19.05;;;;;;;0.15;87.38;101223.88;4986642;28;20050;-69
2022/01/25 08:22:14;;;;;;;155.50;45.67;;;;;;;0.16;86.58;101228.22;4988911;28;20520;-70
2022/01/25 08:24:39;;;;;;;131.43;36.63;;;;;;;0.20;86.60;101230.00;4987897;28;20045;-69
2022/01/25 08:27:05;;;;;;;183.60;45.55;;;;;;;0.23;85.96;101233.50;4989176;28;20480;-70
2022/01/25 08:29:30;;;;;;;323.73;57.78;;;;;;;0.20;85.96;101227.41;4988896;28;20393;-70
2022/01/25 08:31:56;;;;;;;180.40;47.42;;;;;;;0.28;85.84;101222.34;4988840;28;20327;-69
2022/01/25 08:34:21;;;;;;;146.88;36.25;;;;;;;0.31;85.85;101225.00;4989080;28;20539;-70
2022/01/25 08:36:47;;;;;;;283.55;52.05;;;;;;;0.28;86.03;101218.91;4989031;28;20122;-69
2022/01/25 08:39:13;;;;;;;223.43;45.00;;;;;;;0.33;86.37;101232.81;4986632;28;20683;-70
2022/01/25 08:41:39;;;;;;;157.10;36.05;;;;;;;0.46;86.25;101237.31;4989015;28;20125;-60
2022/01/25 08:44:05;;;;;;;79.03;26.00;;;;;;;0.58;86.47;101236.66;4981312;28;20038;-61
2022/01/25 08:46:31;;;;;;;70.13;25.52;;;;;;;0.76;86.12;101242.09;4983627;28;20030;-63
2022/01/25 08:48:58;;;;;;;49.22;21.17;;;;;;;0.88;85.61;101241.41;4984484;28;20079;-62
2022/01/25 08:51:23;;;;;;;64.38;25.33;;;;;;;0.94;84.70;101233.72;4984350;28;20042;-62
2022/01/25 08:53:48;;;;;;;124.57;36.00;;;;;;;1.02;83.99;101234.66;4977436;28;20117;-73
2022/01/25 08:56:14;;;;;;;114.60;31.45;;;;;;;0.98;83.89;101237.19;4986699;28;20722;-72
2022/01/25 08:58:40;;;;;;;99.25;31.98;;;;;;;0.91;84.22;101246.66;4992434;28;20053;-73
2022/01/25 09:01:06;;;;;;;206.60;42.42;;;;;;;0.98;84.19;101247.59;5004049;28;20056;-72
2022/01/25 09:03:31;;;;;;;92.35;30.60;;;;;;;0.99;84.88;101245.03;4987368;28;20496;-74
2022/01/25 09:05:57;;;;;;;71.63;28.80;;;;;;;0.97;83.97;101238.06;4980848;28;20034;-72
2022/01/25 09:08:23;;;;;;;131.52;36.15;;;;;;;1.01;84.19;101240.72;4953316;28;20097;-73
2022/01/25 09:10:57;;;;;;;139.25;35.95;;;;;;;1.05;84.17;101239.03;4961855;28;20071;-73
2022/01/25 09:13:24;;;;;;;62.50;26.30;;;;;;;1.11;84.02;101238.22;4973838;28;20039;-74
2022/01/25 09:15:50;;;;;;;76.68;28.30;;;;;;;1.17;83.90;101235.72;4982574;28;20409;-71
2022/01/25 09:18:15;;;;;;;128.85;41.80;;;;;;;1.20;83.86;101240.94;4982894;28;20057;-73
2022/01/25 09:20:40;;;;;;;195.20;42.80;;;;;;;1.15;83.32;101240.03;4984358;28;20499;-72
2022/01/25 09:23:06;;;;;;;179.73;39.95;;;;;;;1.12;83.88;101240.84;4984661;28;20467;-72
2022/01/25 09:25:31;;;;;;;135.70;42.75;;;;;;;1.11;84.43;101238.22;4982570;28;20049;-72
2022/01/25 09:27:58;;;;;;;66.35;25.83;;;;;;;1.17;85.27;101239.19;4984859;28;20039;-72
2022/01/25 09:30:23;;;;;;;95.53;32.30;;;;;;;1.29;84.78;101246.25;4975872;28;20042;-73
2022/01/25 09:32:49;;;;;;;107.57;33.65;;;;;;;1.32;83.88;101245.44;4930372;28;20042;-73
2022/01/25 09:35:14;;;;;;;118.43;33.33;;;;;;;1.29;83.47;101247.13;4964191;28;20043;-72
2022/01/25 09:37:40;;;;;;;91.47;32.08;;;;;;;1.31;83.87;101256.69;4983464;28;20140;-72
2022/01/25 09:40:06;;;;;;;84.70;30.13;;;;;;;1.34;84.69;101252.38;4987032;28;20038;-73
2022/01/25 09:42:31;;;;;;;109.95;35.85;;;;;;;1.46;84.65;101257.72;4987572;28;20030;-72
2022/01/25 09:44:58;;;;;;;52.63;24.75;;;;;;;1.54;84.38;101256.94;4986528;28;20031;-72
2022/01/25 09:47:24;;;;;;;68.25;28.60;;;;;;;1.64;84.57;101258.78;4986779;28;20133;-73
2022/01/25 09:49:49;;;;;;;68.47;29.10;;;;;;;1.71;83.84;101263.19;4987967;28;20655;-73
2022/01/25 09:52:18;;;;;;;67.85;29.50;;;;;;;1.79;84.11;101258.94;4987579;28;20064;-72
2022/01/25 09:54:53;;;;;;;68.05;31.75;;;;;;;1.74;83.68;101268.44;4986359;28;20093;-72
2022/01/25 09:57:18;;;;;;;76.55;37.22;;;;;;;1.61;82.85;101270.03;4987344;28;20534;-72
2022/01/25 09:59:44;;;;;;;54.88;32.10;;;;;;;1.66;84.38;101264.88;4987551;28;20061;-72
2022/01/25 10:02:09;;;;;;;56.17;29.08;;;;;;;1.74;84.09;101273.63;4970641;28;20038;-72
2022/01/25 10:04:41;;;;;;;72.93;31.15;;;;;;;1.75;83.36;101274.50;4979043;28;20035;-72
2022/01/25 10:07:09;;;;;;;72.15;31.90;;;;;;;1.79;83.57;101274.53;4968085;28;20030;-73
2022/01/25 10:09:42;;;;;;;66.70;31.60;;;;;;;1.86;83.56;101273.75;4985602;28;20089;-73
2022/01/25 10:12:25;;;;;;;61.53;28.73;;;;;;;1.96;83.39;101271.25;4986441;28;20035;-72
2022/01/25 10:15:00;;;;;;;70.88;31.50;;;;;;;2.08;82.88;101276.59;4986565;28;20503;-72
2022/01/25 10:17:33;;;;;;;54.30;29.17;;;;;;;2.11;82.88;101277.47;4984491;28;20049;-73
2022/01/25 10:19:59;;;;;;;39.88;23.58;;;;;;;2.23;82.43;101275.84;4969472;28;20151;-74
2022/01/25 10:22:24;;;;;;;55.83;28.67;;;;;;;2.35;81.96;101282.03;4985004;28;20070;-72
2022/01/25 10:24:50;;;;;;;43.72;23.95;;;;;;;2.36;80.87;101278.59;4987190;28;20034;-72
2022/01/25 10:27:15;;;;;;;71.45;34.50;;;;;;;2.40;81.00;101281.19;4989239;28;20034;-72
2022/01/25 10:29:41;;;;;;;64.28;31.00;;;;;;;2.30;81.67;101275.91;4983484;28;20106;-72
2022/01/25 10:32:14;;;;;;;53.75;28.95;;;;;;;2.33;81.79;101278.53;4964386;28;20096;-72
2022/01/25 10:34:48;;;;;;;55.42;30.67;;;;;;;2.39;81.64;101272.53;4980828;28;20097;-72
2022/01/25 10:37:20;;;;;;;62.38;30.50;;;;;;;2.38;81.78;101275.97;4993182;28;20495;-72
2022/01/25 10:39:48;;;;;;;65.00;30.15;;;;;;;2.38;82.07;101282.91;4994372;28;20065;-73
2022/01/25 10:42:14;;;;;;;74.63;35.03;;;;;;;2.41;81.80;101273.38;4973733;28;20435;-72
2022/01/25 10:44:49;;;;;;;64.65;29.83;;;;;;;2.42;81.78;101274.28;4989424;28;20046;-74
2022/01/25 10:47:16;;;;;;;63.30;31.30;;;;;;;2.40;81.38;101273.41;4971539;28;20491;-71
2022/01/25 10:49:50;;;;;;;76.93;33.30;;;;;;;2.42;81.86;101271.69;4991088;28;20450;-71
2022/01/25 10:52:28;;;;;;;60.78;29.63;;;;;;;2.45;82.03;101266.50;4991018;28;20042;-74
2022/01/25 10:54:53;;;;;;;86.43;40.47;;;;;;;2.45;81.49;101261.28;4971505;28;20049;-72
2022/01/25 10:57:25;;;;;;;72.35;32.90;;;;;;;2.47;81.97;101257.84;4991062;28;20402;-73
2022/01/25 11:00:03;;;;;;;70.22;30.60;;;;;;;2.51;81.88;101257.00;4990554;28;20058;-71
2022/01/25 11:02:29;;;;;;;60.42;29.83;;;;;;;2.55;82.12;101256.16;4990287;28;20033;-74
2022/01/25 11:05:08;;;;;;;52.97;28.45;;;;;;;2.60;81.60;101250.13;4972884;28;20038;-72
2022/01/25 11:07:39;;;;;;;64.47;32.03;;;;;;;2.70;81.56;101255.38;4991190;28;20514;-71
2022/01/25 11:10:05;;;;;;;59.92;29.73;;;;;;;2.77;81.42;101257.16;4968721;28;20113;-71
2022/01/25 11:12:36;;;;;;;48.45;27.08;;;;;;;2.85;81.42;101259.81;4990210;28;20491;-74
2022/01/25 11:15:03;;;;;;;53.10;29.42;;;;;;;2.93;80.95;101252.03;4989791;28;20093;-73
2022/01/25 11:17:31;;;;;;;57.33;31.02;;;;;;;2.97;80.89;101249.47;4990022;28;20046;-72
2022/01/25 11:19:58;;;;;;;80.13;34.53;;;;;;;2.87;80.42;101249.41;4990667;28;20094;-73
2022/01/25 11:22:24;;;;;;;79.07;36.35;;;;;;;2.78;81.42;101248.50;4990731;28;20034;-73
2022/01/25 11:24:59;;;;;;;65.22;30.33;;;;;;;2.86;81.65;101251.16;4972630;28;20414;-73
2022/01/25 11:27:27;;;;;;;61.08;30.55;;;;;;;2.96;81.09;101241.66;4988924;28;20038;-73
2022/01/25 11:29:56;;;;;;;63.88;32.63;;;;;;;2.94;81.15;101241.66;4990219;28;20037;-73
2022/01/25 11:32:32;;;;;;;58.42;29.58;;;;;;;3.02;80.78;101241.69;4989930;28;20124;-71
2022/01/25 11:34:59;;;;;;;57.63;30.30;;;;;;;3.04;81.04;101242.56;4988783;28;20038;-73
2022/01/25 11:37:36;;;;;;;54.58;29.42;;;;;;;3.10;80.66;101250.44;4977429;28;20042;-71
2022/01/25 11:40:03;;;;;;;56.22;29.95;;;;;;;3.11;80.14;101251.28;4970334;28;20030;-72
2022/01/25 11:42:35;;;;;;;62.63;30.50;;;;;;;3.11;79.58;101249.56;4970444;28;20031;-72
2022/01/25 11:45:03;;;;;;;58.88;31.15;;;;;;;3.07;80.03;101246.91;4972125;28;20129;-73
2022/01/25 11:47:36;;;;;;;55.17;30.33;;;;;;;3.07;80.06;101242.56;4988212;28;20088;-72
2022/01/25 11:50:06;;;;;;;50.30;27.00;;;;;;;3.07;79.59;101245.19;4976364;28;20170;-71
2022/01/25 11:52:32;;;;;;;49.22;25.60;;;;;;;3.06;79.77;101239.97;4993736;28;20049;-70
2022/01/25 11:55:16;;;;;;;44.75;25.45;;;;;;;3.10;79.69;101240.00;4977603;28;20042;-72
2022/01/25 11:57:57;;;;;;;51.58;26.63;;;;;;;3.16;79.63;101242.63;4983023;28;20046;-72
2022/01/25 12:00:38;;;;;;;52.72;27.73;;;;;;;3.21;79.31;101240.03;4984157;28;20034;-73
2022/01/25 12:03:19;;;;;;;48.08;27.00;;;;;;;3.22;79.08;101233.97;4965752;28;20042;-72
2022/01/25 12:06:00;;;;;;;52.75;31.80;;;;;;;3.24;79.02;101234.84;4967889;28;20472;-71
2022/01/25 12:08:40;;;;;;;51.05;28.77;;;;;;;3.15;79.27;101230.47;4964999;28;20066;-72
2022/01/25 12:11:29;;;;;;;59.45;28.60;;;;;;;3.18;79.41;101233.09;4965012;28;20049;-73
2022/01/25 12:14:18;;;;;;;46.03;27.33;;;;;;;3.29;79.41;101224.44;4963721;28;20046;-72
2022/01/25 12:16:47;;;;;;;55.20;28.65;;;;;;;3.35;78.69;101225.34;4957966;28;20068;-73
2022/01/25 12:19:14;;;;;;;69.95;35.47;;;;;;;3.35;78.98;101232.28;5003805;28;20050;-72
2022/01/25 12:21:46;;;;;;;59.58;29.85;;;;;;;3.33;79.28;101221.00;4993856;28;20047;-71
2022/01/25 12:25:02;;;;;;;49.65;27.13;;;;;;;3.38;79.18;101219.25;4963891;28;20097;-72
2022/01/25 12:28:07;;;;;;;48.55;25.67;;;;;;;3.42;79.06;101219.28;4972118;28;20042;-74
2022/01/25 12:30:41;;;;;;;47.25;25.77;;;;;;;3.34;78.60;101220.97;4984106;28;20126;-72
2022/01/25 12:33:18;;;;;;;46.13;26.73;;;;;;;3.33;78.58;101215.78;4983208;28;20788;-72
2022/01/25 12:35:57;;;;;;;41.58;25.63;;;;;;;3.39;78.93;101208.81;4982724;28;20108;-72
2022/01/25 12:38:37;;;;;;;54.72;27.58;;;;;;;3.34;78.80;101217.50;4979136;28;20052;-73
2022/01/25 12:41:06;;;;;;;43.58;25.63;;;;;;;3.35;78.74;101214.91;4983705;28;20038;-72
2022/01/25 12:43:39;;;;;;;50.10;27.33;;;;;;;3.47;78.46;101214.09;4971846;28;20047;-71
2022/01/25 12:46:06;;;;;;;49.70;28.50;;;;;;;3.53;78.53;101214.09;4946001;28;20109;-72
2022/01/25 12:48:37;;;;;;;50.58;29.98;;;;;;;3.46;77.28;101214.94;4964402;28;20051;-71
2022/01/25 12:51:07;;;;;;;51.35;30.23;;;;;;;3.21;78.95;101221.81;4976091;28;20775;-72
2022/01/25 12:53:35;;;;;;;51.65;30.67;;;;;;;3.20;79.57;101215.72;4966926;28;20077;-73
2022/01/25 12:56:07;;;;;;;53.13;29.55;;;;;;;3.31;79.53;101213.16;4961619;28;20045;-74
2022/01/25 12:58:34;;;;;;;47.60;28.52;;;;;;;3.35;78.81;101211.44;4968882;28;20048;-71